CheckWX is a tool to help pilots better visualize weather data.  It is not intended as a substitute for an official pre-flight weather briefing.

18:39:58 UTC

KCQF METAR
H L Sonny Callahan Airport
Fairhope, Alabama, USA
Current

25 mins ago

KCQF 261815Z AUTO 36010G18KT 10SM SCT037 17/08 A3014 RMK AO2
Observed
Mar-26 @ 18:15 UTC
Wind
  • 360° at 10 KTS
  • Gusting to 18 KTS
Visibility
10 SM
Flight Rules
VFR
Cloud Levels
  • Scattered at 3,700' AGL
Temperature
17°C / 63°F
Dewpoint
C / 46°F
Humidity
56%
Altimeter
30.14" Hg
Pressure
1020.62 hPa
Previous

45 mins ago

KCQF 261755Z AUTO 31010G18KT 10SM BKN037 17/08 A3015 RMK AO2
Observed
Mar-26 @ 17:55 UTC
Wind
  • 310° at 10 KTS
  • Gusting to 18 KTS
Visibility
10 SM
Flight Rules
VFR
Cloud Levels
  • Broken at 3,700' AGL
Temperature
17°C / 63°F
Dewpoint
C / 46°F
Humidity
56%
Altimeter
30.15" Hg
Pressure
1021.02 hPa
Previous

1 hour ago

KCQF 261735Z AUTO 32011G17KT 10SM OVC035 17/08 A3015 RMK AO2
Observed
Mar-26 @ 17:35 UTC
Wind
  • 320° at 11 KTS
  • Gusting to 17 KTS
Visibility
10 SM
Flight Rules
VFR
Cloud Levels
  • Overcast at 3,500' AGL
Temperature
17°C / 63°F
Dewpoint
C / 46°F
Humidity
56%
Altimeter
30.15" Hg
Pressure
1021.02 hPa